Time;durP1;ratioP1;P1;durP2;ratioP2;P2;SDS_P1;SDS_P2;PMS_P1;PMS_P2;Temp;Humidity;BMP_temperature;BMP_pressure;BME280_temperature;BME280_humidity;BME280_pressure;Samples;Min_cycle;Max_cycle;Signal;HPM_P1;HPM_P2
2022/03/06 00:01:16;;;;;;;15.40;9.73;;;0.10;89.30;;;;;;6134435;23;20554;-88
2022/03/06 00:03:43;;;;;;;15.07;9.30;;;0.10;89.90;;;;;;6134968;23;20343;-89
2022/03/06 00:06:09;;;;;;;14.30;9.43;;;0.20;90.10;;;;;;6134607;23;20199;-88
2022/03/06 00:08:34;;;;;;;18.57;10.50;;;0.30;90.00;;;;;;6129620;23;20462;-89
2022/03/06 00:11:00;;;;;;;15.13;8.87;;;0.20;90.00;;;;;;6130505;23;20570;-89
2022/03/06 00:13:45;;;;;;;16.93;10.23;;;0.20;90.00;;;;;;6152582;23;20638;-89
2022/03/06 00:16:11;;;;;;;17.23;10.17;;;0.10;90.20;;;;;;6131933;23;20382;-89
2022/03/06 00:18:38;;;;;;;12.60;8.63;;;0.10;90.40;;;;;;6126315;23;20496;-88
2022/03/06 00:21:05;;;;;;;15.17;9.63;;;0.10;90.40;;;;;;6130847;23;20165;-89
2022/03/06 00:23:31;;;;;;;13.63;9.80;;;0.10;90.60;;;;;;6131733;23;20420;-89
2022/03/06 00:25:56;;;;;;;17.30;9.20;;;0.10;90.70;;;;;;6130189;23;21113;-89
2022/03/06 00:28:22;;;;;;;17.27;10.30;;;0.00;90.70;;;;;;6136229;23;20188;-88
2022/03/06 00:30:48;;;;;;;16.83;10.40;;;0.00;91.00;;;;;;6134767;23;20156;-89
2022/03/06 00:33:14;;;;;;;14.60;9.67;;;0.10;91.00;;;;;;6134125;23;20168;-88
2022/03/06 00:35:43;;;;;;;15.33;10.57;;;0.00;91.00;;;;;;6158980;23;20380;-88
2022/03/06 00:38:11;;;;;;;13.27;9.37;;;-0.10;91.40;;;;;;6159355;23;20384;-87
2022/03/06 00:40:42;;;;;;;14.87;10.23;;;-0.10;91.60;;;;;;6133758;23;20470;-89
2022/03/06 00:43:18;;;;;;;16.13;10.07;;;-0.10;91.70;;;;;;6132955;23;20184;-88
2022/03/06 00:45:43;;;;;;;15.77;9.93;;;-0.10;91.80;;;;;;6127382;23;20792;-88
2022/03/06 00:48:09;;;;;;;16.73;10.17;;;-0.20;92.00;;;;;;6135746;23;20392;-88
2022/03/06 00:50:36;;;;;;;14.50;10.50;;;0.00;92.00;;;;;;6132202;23;20164;-88
2022/03/06 00:53:02;;;;;;;15.20;10.07;;;-0.20;92.20;;;;;;6133307;23;20167;-88
2022/03/06 00:55:30;;;;;;;17.50;10.23;;;-0.20;92.70;;;;;;6134748;23;20388;-88
2022/03/06 00:57:56;;;;;;;15.40;9.33;;;-0.30;93.10;;;;;;6136039;23;20395;-88
2022/03/06 01:00:22;;;;;;;15.93;9.67;;;-0.40;93.60;;;;;;6134684;23;20439;-87
2022/03/06 01:02:48;;;;;;;16.67;10.27;;;-0.40;94.20;;;;;;6135030;23;20580;-88
2022/03/06 01:05:13;;;;;;;15.50;10.23;;;-0.40;94.00;;;;;;6134275;23;20921;-89
2022/03/06 01:07:40;;;;;;;18.93;9.90;;;-0.50;94.10;;;;;;6133797;23;20327;-87
2022/03/06 01:10:06;;;;;;;16.43;9.83;;;-0.30;94.30;;;;;;6133999;23;20164;-88
2022/03/06 01:12:32;;;;;;;16.70;10.33;;;-0.30;94.10;;;;;;6135742;23;20391;-87
2022/03/06 01:14:58;;;;;;;18.00;9.70;;;-0.30;94.30;;;;;;6132837;23;20797;-87
2022/03/06 01:17:24;;;;;;;15.60;11.00;;;-0.30;94.40;;;;;;6135455;23;20383;-87
2022/03/06 01:19:50;;;;;;;15.60;10.40;;;-0.40;94.70;;;;;;6137203;23;20439;-87
2022/03/06 01:22:18;;;;;;;14.77;9.73;;;-0.40;95.20;;;;;;6136106;23;20710;-88
2022/03/06 01:24:44;;;;;;;16.63;10.60;;;-0.50;95.70;;;;;;6133316;23;20648;-87
2022/03/06 01:27:10;;;;;;;15.63;10.10;;;-0.70;96.20;;;;;;6135417;23;20598;-87
2022/03/06 01:29:36;;;;;;;17.87;9.90;;;-0.70;97.00;;;;;;6132374;23;20490;-86
2022/03/06 01:32:01;;;;;;;18.00;11.13;;;-0.80;97.20;;;;;;6137189;23;20465;-87
2022/03/06 01:34:27;;;;;;;16.43;10.00;;;-0.70;97.40;;;;;;6138436;23;20214;-87
2022/03/06 01:36:53;;;;;;;16.90;10.70;;;-0.80;97.70;;;;;;6135089;23;20595;-87
2022/03/06 01:39:19;;;;;;;16.23;11.33;;;-0.80;97.80;;;;;;6132977;23;20188;-87
2022/03/06 01:41:49;;;;;;;15.73;9.20;;;-0.70;97.90;;;;;;6135360;23;20419;-89
2022/03/06 01:44:18;;;;;;;16.70;10.50;;;-0.70;97.90;;;;;;6135013;23;20164;-89
2022/03/06 01:46:51;;;;;;;20.40;11.67;;;-0.80;98.00;;;;;;6130368;23;20571;-90
2022/03/06 01:49:20;;;;;;;19.27;10.50;;;-0.80;98.20;;;;;;6134202;23;20396;-89
2022/03/06 01:51:47;;;;;;;20.23;10.83;;;-1.00;98.60;;;;;;6157463;23;20900;-89
2022/03/06 01:54:13;;;;;;;19.73;10.40;;;-1.00;98.50;;;;;;6131481;23;20882;-89
2022/03/06 01:56:40;;;;;;;17.73;10.37;;;-1.10;98.80;;;;;;6133868;23;20402;-88
2022/03/06 01:59:06;;;;;;;15.33;9.90;;;-1.00;99.20;;;;;;6134245;23;20905;-87
2022/03/06 02:01:32;;;;;;;16.50;10.17;;;-1.00;99.20;;;;;;6133214;23;20392;-88
2022/03/06 02:03:58;;;;;;;15.27;10.37;;;-0.90;99.30;;;;;;6131127;23;20407;-88
2022/03/06 02:06:25;;;;;;;15.50;9.90;;;-0.90;99.40;;;;;;6132292;23;20396;-89
2022/03/06 02:08:51;;;;;;;16.45;11.35;;;-1.00;99.70;;;;;;6133258;23;20161;-88
2022/03/06 02:11:17;;;;;;;17.03;9.87;;;-1.00;99.90;;;;;;6135257;23;20587;-89
2022/03/06 02:13:44;;;;;;;18.67;11.05;;;-1.00;99.90;;;;;;6131801;23;20399;-89
2022/03/06 02:16:10;;;;;;;16.63;10.67;;;-0.90;99.30;;;;;;6133019;23;20355;-89
2022/03/06 02:18:36;;;;;;;16.13;10.40;;;-1.00;99.20;;;;;;6132034;23;20458;-89
2022/03/06 02:21:13;;;;;;;15.87;10.30;;;-1.10;99.40;;;;;;6132814;23;20465;-89
2022/03/06 02:23:39;;;;;;;18.25;11.00;;;-1.10;99.90;;;;;;6134480;23;20384;-88
2022/03/06 02:26:06;;;;;;;14.33;9.50;;;-1.10;99.90;;;;;;6134436;23;20279;-88
2022/03/06 02:28:32;;;;;;;17.33;9.90;;;-1.20;99.90;;;;;;6135427;23;20404;-88
2022/03/06 02:30:57;;;;;;;17.53;11.03;;;-1.10;99.90;;;;;;6132139;23;20415;-88
2022/03/06 02:33:23;;;;;;;15.13;9.50;;;-1.10;99.90;;;;;;6133418;23;20611;-88
2022/03/06 02:35:49;;;;;;;16.27;9.50;;;-1.10;99.90;;;;;;6134354;23;20188;-88
2022/03/06 02:38:15;;;;;;;16.67;10.17;;;-0.90;99.90;;;;;;6133276;23;20795;-88
2022/03/06 02:40:43;;;;;;;15.13;10.33;;;-0.90;99.70;;;;;;6133463;23;20686;-88
2022/03/06 02:43:10;;;;;;;18.50;10.07;;;-0.90;99.80;;;;;;6131801;23;20156;-89
2022/03/06 02:45:38;;;;;;;12.57;9.33;;;-0.90;99.90;;;;;;6131971;23;20406;-87
2022/03/06 02:48:04;;;;;;;14.60;9.40;;;-0.90;99.90;;;;;;6133365;23;21031;-87
2022/03/06 02:50:35;;;;;;;14.90;9.77;;;-0.80;99.90;;;;;;6134955;23;20438;-90
2022/03/06 02:53:03;;;;;;;16.30;9.23;;;-0.80;99.80;;;;;;6133678;23;20415;-89
2022/03/06 02:55:29;;;;;;;16.63;9.23;;;-0.80;99.70;;;;;;6131832;23;20160;-87
2022/03/06 02:57:55;;;;;;;15.80;9.07;;;-0.70;99.40;;;;;;6135760;23;20828;-87
2022/03/06 03:00:22;;;;;;;17.07;10.23;;;-0.70;99.50;;;;;;6132430;23;20184;-87
2022/03/06 03:02:51;;;;;;;16.37;9.73;;;-0.80;99.60;;;;;;6135182;23;20454;-88
2022/03/06 03:05:18;;;;;;;14.70;9.17;;;-0.90;99.90;;;;;;6130755;23;20428;-88
2022/03/06 03:07:49;;;;;;;17.73;9.13;;;-1.00;99.90;;;;;;6135467;23;20393;-88
2022/03/06 03:10:18;;;;;;;14.13;9.70;;;-1.10;99.90;;;;;;6134226;23;20449;-89
2022/03/06 03:12:44;;;;;;;15.80;9.80;;;-1.20;99.90;;;;;;6132838;23;20388;-88
2022/03/06 03:15:11;;;;;;;14.60;9.00;;;-1.30;99.90;;;;;;6133007;23;20942;-88
2022/03/06 03:17:37;;;;;;;19.63;11.43;;;-1.20;99.90;;;;;;6135316;23;20469;-88
2022/03/06 03:20:04;;;;;;;18.13;11.20;;;-1.30;99.90;;;;;;6129484;23;20194;-87
2022/03/06 03:22:30;;;;;;;15.70;9.68;;;-1.40;99.90;;;;;;6132491;23;20191;-87
2022/03/06 03:24:56;;;;;;;17.40;10.17;;;-1.40;99.90;;;;;;6132014;23;20164;-87
2022/03/06 03:27:21;;;;;;;15.50;9.33;;;-1.40;99.90;;;;;;6133620;23;20491;-86
2022/03/06 03:29:47;;;;;;;13.80;8.50;;;-1.50;99.90;;;;;;6132854;23;20342;-87
2022/03/06 03:32:15;;;;;;;14.63;9.40;;;-1.30;99.90;;;;;;6132424;23;20156;-88
2022/03/06 03:34:56;;;;;;;15.63;9.02;;;-1.40;99.90;;;;;;6132866;23;20170;-89
2022/03/06 03:37:41;;;;;;;12.35;8.80;;;-1.40;99.90;;;;;;6156780;23;20160;-88
2022/03/06 03:40:09;;;;;;;18.08;9.50;;;-1.40;99.90;;;;;;6129006;23;20192;-88
2022/03/06 03:42:42;;;;;;;17.15;9.90;;;-1.40;99.90;;;;;;6129280;23;20570;-88
2022/03/06 03:45:08;;;;;;;16.98;9.55;;;-1.30;99.90;;;;;;6129400;23;20370;-88
2022/03/06 03:47:35;;;;;;;15.70;9.20;;;-1.30;99.90;;;;;;6129545;23;20160;-88
2022/03/06 03:50:01;;;;;;;16.35;8.93;;;-1.30;99.90;;;;;;6133897;23;20414;-88
2022/03/06 03:52:26;;;;;;;16.73;10.30;;;-1.30;99.90;;;;;;6129859;23;20156;-88
2022/03/06 03:54:52;;;;;;;16.03;8.80;;;-1.30;99.90;;;;;;6133047;23;20604;-88
2022/03/06 03:57:23;;;;;;;19.73;10.43;;;-1.40;99.90;;;;;;6129943;23;20194;-88
2022/03/06 03:59:51;;;;;;;15.68;9.18;;;-1.40;99.90;;;;;;6129153;23;20180;-88
2022/03/06 04:02:54;;;;;;;17.48;9.98;;;-1.40;99.90;;;;;;6127315;23;20236;-89
2022/03/06 04:05:28;;;;;;;16.30;9.40;;;-1.50;99.90;;;;;;6128214;23;20168;-89
2022/03/06 04:07:53;;;;;;;16.90;9.07;;;-1.40;99.90;;;;;;6131228;23;20164;-89
2022/03/06 04:10:19;;;;;;;16.87;9.87;;;-1.40;99.90;;;;;;6127839;23;20164;-88
2022/03/06 04:12:45;;;;;;;14.35;8.98;;;-1.50;99.90;;;;;;6128917;23;20156;-89
2022/03/06 04:15:11;;;;;;;17.30;10.03;;;-1.60;99.90;;;;;;6130554;23;20446;-89
2022/03/06 04:17:36;;;;;;;13.60;9.13;;;-1.70;99.90;;;;;;6131444;23;20168;-88
2022/03/06 04:20:03;;;;;;;16.63;9.90;;;-1.70;99.90;;;;;;6127556;23;20611;-88
2022/03/06 04:22:29;;;;;;;15.18;9.50;;;-1.70;99.90;;;;;;6129277;23;20163;-89
2022/03/06 04:24:54;;;;;;;15.00;9.93;;;-1.60;99.90;;;;;;6129538;23;20156;-89
2022/03/06 04:27:20;;;;;;;15.93;9.63;;;-1.60;99.90;;;;;;6131560;23;20196;-89
2022/03/06 04:29:46;;;;;;;17.57;9.30;;;-1.50;99.90;;;;;;6130767;23;20588;-88
2022/03/06 04:32:11;;;;;;;16.67;9.70;;;-1.50;99.90;;;;;;6132093;23;20288;-87
2022/03/06 04:34:37;;;;;;;17.43;9.47;;;-1.50;99.90;;;;;;6134674;23;20156;-86
2022/03/06 04:37:03;;;;;;;16.30;9.33;;;-1.50;99.90;;;;;;6132557;23;20157;-88
2022/03/06 04:39:28;;;;;;;16.53;9.40;;;-1.50;99.90;;;;;;6135685;23;20436;-88
2022/03/06 04:41:54;;;;;;;17.30;9.70;;;-1.60;99.90;;;;;;6132503;23;20910;-88
2022/03/06 04:44:20;;;;;;;14.90;9.53;;;-1.60;99.90;;;;;;6130708;23;20167;-87
2022/03/06 04:46:46;;;;;;;13.77;8.90;;;-1.50;99.90;;;;;;6132399;23;20188;-88
2022/03/06 04:49:13;;;;;;;14.88;9.20;;;-1.60;99.90;;;;;;6132453;23;20164;-88
2022/03/06 04:51:39;;;;;;;16.10;9.32;;;-1.60;99.90;;;;;;6135513;23;20211;-88
2022/03/06 04:54:05;;;;;;;15.40;9.50;;;-1.60;99.90;;;;;;6111757;23;20665;-87
2022/03/06 04:56:31;;;;;;;15.20;8.75;;;-1.70;99.90;;;;;;6134849;23;20164;-87
2022/03/06 04:58:57;;;;;;;15.87;9.80;;;-1.60;99.90;;;;;;6133338;23;20510;-88
2022/03/06 05:01:22;;;;;;;15.80;9.63;;;-1.60;99.90;;;;;;6133196;23;20665;-89
2022/03/06 05:03:48;;;;;;;16.07;9.27;;;-1.70;99.90;;;;;;6128952;23;20395;-88
2022/03/06 05:06:14;;;;;;;13.17;8.47;;;-1.60;99.90;;;;;;6129238;23;20156;-87
2022/03/06 05:08:39;;;;;;;15.80;9.70;;;-1.70;99.90;;;;;;6127030;23;20619;-87
2022/03/06 05:11:05;;;;;;;14.73;8.27;;;-1.70;99.90;;;;;;6129418;23;20185;-86
2022/03/06 05:13:30;;;;;;;16.80;9.33;;;-1.60;99.90;;;;;;6127323;23;20164;-85
2022/03/06 05:15:56;;;;;;;15.73;9.43;;;-1.70;99.90;;;;;;6128185;23;20163;-87
2022/03/06 05:18:22;;;;;;;14.37;10.00;;;-1.70;99.90;;;;;;6127917;23;20226;-87
2022/03/06 05:20:48;;;;;;;15.60;8.57;;;-1.70;99.90;;;;;;6132401;23;20535;-87
2022/03/06 05:23:14;;;;;;;15.70;8.73;;;-1.70;99.90;;;;;;6128179;23;20455;-88
2022/03/06 05:25:39;;;;;;;12.73;8.13;;;-1.90;99.90;;;;;;6130428;23;20492;-88
2022/03/06 05:28:05;;;;;;;15.87;9.47;;;-1.80;99.90;;;;;;6130321;23;20168;-86
2022/03/06 05:30:31;;;;;;;14.17;8.37;;;-1.90;99.90;;;;;;6132271;23;20629;-86
2022/03/06 05:32:57;;;;;;;18.08;9.45;;;-1.90;99.90;;;;;;6132720;23;20164;-87
2022/03/06 05:35:23;;;;;;;16.63;10.20;;;-2.00;99.90;;;;;;6125885;23;20504;-86
2022/03/06 05:37:49;;;;;;;18.02;10.75;;;-2.00;99.90;;;;;;6130113;23;20161;-86
2022/03/06 05:40:14;;;;;;;16.30;9.30;;;-2.10;99.90;;;;;;6132189;23;20199;-86
2022/03/06 05:42:40;;;;;;;12.27;8.13;;;-2.00;99.90;;;;;;6130268;23;20711;-87
2022/03/06 05:45:06;;;;;;;13.00;8.03;;;-1.90;99.90;;;;;;6132022;23;20765;-86
2022/03/06 05:47:32;;;;;;;16.83;10.45;;;-1.80;99.90;;;;;;6131367;23;20247;-87
2022/03/06 05:49:58;;;;;;;13.23;8.43;;;-1.80;99.90;;;;;;6132697;23;20239;-87
2022/03/06 05:52:23;;;;;;;16.37;9.87;;;-1.80;99.90;;;;;;6132863;23;20156;-87
2022/03/06 05:54:49;;;;;;;14.03;9.20;;;-1.80;99.90;;;;;;6133551;23;20646;-86
2022/03/06 05:57:14;;;;;;;13.00;7.97;;;-1.90;99.90;;;;;;6135813;23;20548;-87
2022/03/06 05:59:41;;;;;;;11.87;8.60;;;-1.90;99.90;;;;;;6133087;23;20219;-88
2022/03/06 06:02:08;;;;;;;15.00;8.95;;;-1.90;99.90;;;;;;6133098;23;20160;-87
2022/03/06 06:04:34;;;;;;;17.08;9.43;;;-1.90;99.90;;;;;;6133151;23;20159;-89
2022/03/06 06:07:00;;;;;;;14.35;9.57;;;-2.00;99.90;;;;;;6131046;23;20164;-87
2022/03/06 06:09:26;;;;;;;16.00;9.23;;;-2.00;99.90;;;;;;6132587;23;20160;-89
2022/03/06 06:11:51;;;;;;;18.30;9.00;;;-1.90;99.90;;;;;;6132785;23;20652;-88
2022/03/06 06:14:17;;;;;;;17.57;9.27;;;-1.90;99.90;;;;;;6132521;23;20287;-87
2022/03/06 06:16:42;;;;;;;13.53;8.83;;;-1.90;99.90;;;;;;6134677;23;20426;-88
2022/03/06 06:19:08;;;;;;;15.93;9.70;;;-1.80;99.90;;;;;;6135238;23;20654;-86
2022/03/06 06:21:34;;;;;;;14.90;9.00;;;-1.80;99.90;;;;;;6133347;23;20157;-87
2022/03/06 06:24:02;;;;;;;17.43;9.77;;;-1.80;99.90;;;;;;6132000;23;20250;-86
2022/03/06 06:26:34;;;;;;;15.55;9.15;;;-1.70;99.90;;;;;;6133405;23;20196;-88
2022/03/06 06:29:21;;;;;;;14.40;8.98;;;-1.60;99.90;;;;;;6163272;23;20636;-89
2022/03/06 06:31:46;;;;;;;14.67;9.10;;;-1.50;99.90;;;;;;6137034;23;20183;-89
2022/03/06 06:34:12;;;;;;;15.30;9.20;;;-1.60;99.90;;;;;;6136370;23;20478;-88
2022/03/06 06:36:37;;;;;;;13.57;8.73;;;-1.50;99.90;;;;;;6135005;23;20160;-87
2022/03/06 06:39:03;;;;;;;13.30;8.70;;;-1.40;99.90;;;;;;6133992;23;20153;-87
2022/03/06 06:41:29;;;;;;;15.13;8.53;;;-1.40;99.90;;;;;;6134981;23;20168;-87
2022/03/06 06:43:54;;;;;;;16.73;9.23;;;-1.40;99.90;;;;;;6132746;23;20188;-87
2022/03/06 06:46:20;;;;;;;17.30;9.03;;;-1.30;99.90;;;;;;6132812;23;20156;-88
2022/03/06 06:48:45;;;;;;;15.03;7.97;;;-1.30;99.90;;;;;;6133977;23;20156;-87
2022/03/06 06:51:11;;;;;;;18.80;10.17;;;-1.20;99.90;;;;;;6133327;23;20168;-86
2022/03/06 06:53:38;;;;;;;16.80;8.98;;;-1.10;99.90;;;;;;6160424;23;20476;-86
2022/03/06 06:56:03;;;;;;;16.50;10.23;;;-1.00;99.90;;;;;;6134801;23;20636;-86
2022/03/06 06:58:29;;;;;;;14.90;8.90;;;-0.80;99.90;;;;;;6136135;23;20480;-86
2022/03/06 07:00:54;;;;;;;20.30;9.60;;;-0.70;99.90;;;;;;6133732;23;20575;-86
2022/03/06 07:03:20;;;;;;;15.73;9.40;;;-0.60;99.90;;;;;;6135467;23;20591;-89
2022/03/06 07:05:50;;;;;;;15.30;10.20;;;-0.40;99.90;;;;;;6138302;23;20179;-88
2022/03/06 07:08:16;;;;;;;13.53;9.53;;;-0.30;99.90;;;;;;6138749;23;20161;-88
2022/03/06 07:10:42;;;;;;;16.07;9.90;;;-0.20;99.90;;;;;;6137390;23;20427;-89
2022/03/06 07:13:07;;;;;;;18.07;10.50;;;-0.10;99.90;;;;;;6138697;23;20294;-87
2022/03/06 07:15:33;;;;;;;15.50;8.70;;;0.10;99.90;;;;;;6138402;23;20160;-90
2022/03/06 07:18:00;;;;;;;16.40;10.10;;;0.30;99.90;;;;;;6137186;23;20616;-90
2022/03/06 07:20:27;;;;;;;15.97;10.43;;;0.40;99.90;;;;;;6134565;23;20439;-89
2022/03/06 07:22:53;;;;;;;16.83;9.63;;;0.50;99.90;;;;;;6133616;23;20384;-89
2022/03/06 07:25:19;;;;;;;16.97;10.00;;;0.70;99.90;;;;;;6133833;23;20455;-89
2022/03/06 07:27:45;;;;;;;16.87;9.57;;;0.80;99.90;;;;;;6134700;23;20567;-89
2022/03/06 07:30:12;;;;;;;15.40;10.27;;;0.80;99.90;;;;;;6133627;23;20490;-89
2022/03/06 07:32:49;;;;;;;17.57;10.00;;;0.90;99.90;;;;;;6133514;23;20525;-90
2022/03/06 07:35:16;;;;;;;18.60;11.60;;;1.00;99.90;;;;;;6132314;23;20624;-88
2022/03/06 07:37:42;;;;;;;17.07;10.33;;;1.00;99.90;;;;;;6135730;23;20408;-86
2022/03/06 07:40:10;;;;;;;14.95;10.77;;;1.00;99.90;;;;;;6123006;23;20879;-81
2022/03/06 07:42:41;;;;;;;18.55;11.15;;;1.10;99.90;;;;;;6124096;23;20661;-86
2022/03/06 07:45:27;;;;;;;14.53;9.17;;;1.20;99.90;;;;;;6138711;23;20632;-89
2022/03/06 07:47:54;;;;;;;16.10;10.43;;;1.40;99.90;;;;;;6126918;23;20441;-87
2022/03/06 07:50:19;;;;;;;17.00;10.23;;;1.50;99.90;;;;;;6129031;23;20188;-86
2022/03/06 07:52:45;;;;;;;16.77;10.30;;;1.50;99.90;;;;;;6132823;23;20423;-86
2022/03/06 07:55:12;;;;;;;16.47;10.83;;;1.60;99.90;;;;;;6127518;23;20160;-85
2022/03/06 07:57:51;;;;;;;15.00;10.47;;;1.70;99.90;;;;;;6129197;23;20620;-88
2022/03/06 08:00:33;;;;;;;16.57;9.70;;;1.80;99.90;;;;;;6136347;23;20458;-90
2022/03/06 08:02:59;;;;;;;16.60;10.00;;;2.00;99.90;;;;;;6127804;23;20400;-88
2022/03/06 08:05:26;;;;;;;16.60;10.80;;;2.10;99.90;;;;;;6132199;23;20777;-89
2022/03/06 08:07:52;;;;;;;15.47;10.77;;;2.30;99.90;;;;;;6131330;23;20623;-88
2022/03/06 08:10:18;;;;;;;15.83;10.53;;;2.40;99.90;;;;;;6132553;23;20419;-86
2022/03/06 08:12:52;;;;;;;16.93;11.07;;;2.40;99.90;;;;;;6133030;23;20679;-88
2022/03/06 08:15:19;;;;;;;14.80;10.17;;;2.50;99.80;;;;;;6108960;23;20160;-88
2022/03/06 08:17:51;;;;;;;15.30;11.70;;;2.70;99.50;;;;;;6131910;23;20402;-88
2022/03/06 08:20:18;;;;;;;14.67;10.10;;;2.90;98.90;;;;;;6130176;23;20440;-87
2022/03/06 08:22:44;;;;;;;13.87;10.30;;;3.00;98.20;;;;;;6145592;23;20733;-88
2022/03/06 08:25:11;;;;;;;13.20;10.47;;;3.10;98.60;;;;;;6133299;23;20400;-89
2022/03/06 08:27:37;;;;;;;17.80;12.83;;;3.10;97.30;;;;;;6134677;23;20415;-87
2022/03/06 08:30:05;;;;;;;16.57;10.70;;;3.00;98.10;;;;;;6134898;23;20392;-89
2022/03/06 08:32:30;;;;;;;20.80;11.80;;;3.20;98.20;;;;;;6132245;23;20160;-88
2022/03/06 08:34:56;;;;;;;14.63;10.93;;;3.40;97.50;;;;;;6134761;23;20876;-88
2022/03/06 08:37:22;;;;;;;18.10;11.10;;;3.70;97.30;;;;;;6137783;23;20164;-90
2022/03/06 08:39:49;;;;;;;19.27;10.83;;;3.80;96.30;;;;;;6138040;23;20439;-89
2022/03/06 08:42:15;;;;;;;13.50;10.00;;;3.70;96.10;;;;;;6138214;23;20384;-90
2022/03/06 08:44:42;;;;;;;17.43;11.23;;;3.70;95.40;;;;;;6114736;23;20405;-89
2022/03/06 08:47:08;;;;;;;16.80;10.43;;;3.60;95.60;;;;;;6138803;23;20384;-89
2022/03/06 08:49:33;;;;;;;15.60;10.70;;;3.80;95.90;;;;;;6113004;23;20424;-88
2022/03/06 08:52:00;;;;;;;15.23;11.43;;;3.80;96.30;;;;;;6139062;23;20392;-91
2022/03/06 08:54:26;;;;;;;16.00;10.90;;;4.00;96.10;;;;;;6139734;23;20163;-91
2022/03/06 08:56:52;;;;;;;14.60;10.80;;;4.20;96.70;;;;;;6141132;23;20538;-89
2022/03/06 08:59:20;;;;;;;17.77;11.93;;;4.40;95.70;;;;;;6138268;23;20427;-90
2022/03/06 09:01:49;;;;;;;15.97;10.37;;;4.60;94.70;;;;;;6134385;23;20246;-88
2022/03/06 09:04:14;;;;;;;15.23;10.93;;;4.70;94.40;;;;;;6132706;23;20403;-88
2022/03/06 09:06:41;;;;;;;15.27;10.57;;;5.00;94.10;;;;;;6132593;23;20398;-89
2022/03/06 09:09:07;;;;;;;17.80;11.47;;;4.70;93.00;;;;;;6132304;23;20159;-90
2022/03/06 09:11:35;;;;;;;15.97;11.30;;;4.50;93.20;;;;;;6130107;23;20416;-88
2022/03/06 09:14:03;;;;;;;13.50;10.80;;;4.70;94.70;;;;;;6132004;23;20779;-88
2022/03/06 09:16:28;;;;;;;16.27;11.77;;;4.90;92.40;;;;;;6132711;23;20380;-88
2022/03/06 09:18:55;;;;;;;17.20;11.90;;;5.10;92.40;;;;;;6133658;23;20398;-89
2022/03/06 09:21:22;;;;;;;16.33;11.60;;;5.30;92.00;;;;;;6131761;23;20649;-90
2022/03/06 09:23:48;;;;;;;14.80;10.50;;;5.20;92.70;;;;;;6130974;23;20406;-90
2022/03/06 09:26:13;;;;;;;16.90;11.30;;;5.10;92.00;;;;;;6135686;23;20715;-88
2022/03/06 09:28:39;;;;;;;17.80;12.03;;;5.40;92.90;;;;;;6133393;23;20164;-88
2022/03/06 09:31:05;;;;;;;14.40;11.00;;;5.60;91.60;;;;;;6132114;23;20167;-90
2022/03/06 09:33:30;;;;;;;15.00;10.90;;;6.00;90.60;;;;;;6135383;23;20171;-88
2022/03/06 09:35:56;;;;;;;13.23;9.90;;;5.90;89.30;;;;;;6129842;23;20160;-88
2022/03/06 09:38:22;;;;;;;13.83;9.80;;;5.50;90.20;;;;;;6129808;23;20432;-87
2022/03/06 09:41:00;;;;;;;13.87;10.00;;;5.70;89.90;;;;;;6129644;23;20682;-88
2022/03/06 09:43:28;;;;;;;12.67;9.90;;;5.80;89.50;;;;;;6127657;23;20476;-89
2022/03/06 09:46:12;;;;;;;12.93;9.57;;;6.20;87.40;;;;;;6159876;23;20554;-89
2022/03/06 09:48:38;;;;;;;16.00;10.67;;;6.40;87.30;;;;;;6134686;23;20384;-88
2022/03/06 09:51:05;;;;;;;14.77;10.00;;;6.10;86.90;;;;;;6132124;23;20166;-88
2022/03/06 09:53:31;;;;;;;14.00;9.27;;;6.40;86.30;;;;;;6135918;23;20577;-90
2022/03/06 09:56:27;;;;;;;14.53;9.37;;;6.40;83.20;;;;;;6164538;23;20391;-89
2022/03/06 09:58:53;;;;;;;12.30;9.23;;;6.20;81.50;;;;;;6164831;23;20387;-91
2022/03/06 10:01:18;;;;;;;12.97;9.00;;;6.10;81.80;;;;;;6139643;23;20958;-89
2022/03/06 10:03:44;;;;;;;10.13;8.60;;;6.00;81.80;;;;;;6133347;23;20443;-91
2022/03/06 10:06:11;;;;;;;14.27;8.70;;;6.30;80.60;;;;;;6158273;23;20282;-91
2022/03/06 10:08:39;;;;;;;13.77;9.10;;;6.20;78.40;;;;;;6137361;23;20454;-91
2022/03/06 10:11:10;;;;;;;11.53;8.70;;;6.40;77.30;;;;;;6138242;23;20405;-82
2022/03/06 10:13:37;;;;;;;12.20;9.27;;;6.50;75.80;;;;;;6134521;23;20731;-89
2022/03/06 10:16:14;;;;;;;12.67;10.03;;;6.90;74.60;;;;;;6131855;23;20499;-88
2022/03/06 10:18:47;;;;;;;15.00;9.87;;;7.00;75.90;;;;;;6134507;23;20730;-86
2022/03/06 10:21:16;;;;;;;11.33;8.63;;;7.30;72.10;;;;;;6133055;23;20445;-88
2022/03/06 10:23:43;;;;;;;12.17;9.30;;;7.10;73.90;;;;;;6133526;23;20400;-86
2022/03/06 10:26:12;;;;;;;11.20;9.37;;;7.00;73.80;;;;;;6135308;23;20404;-87
2022/03/06 10:28:59;;;;;;;12.93;8.70;;;7.40;74.40;;;;;;6133621;23;20989;-87
2022/03/06 10:31:28;;;;;;;11.43;10.03;;;7.50;71.00;;;;;;6139654;23;20965;-86
2022/03/06 10:34:03;;;;;;;13.03;9.97;;;7.30;70.30;;;;;;6140155;23;20520;-87
2022/03/06 10:36:30;;;;;;;13.40;9.00;;;7.00;70.20;;;;;;6140021;23;20392;-87
2022/03/06 10:38:56;;;;;;;12.73;10.17;;;7.40;69.10;;;;;;6140258;23;20394;-87
2022/03/06 10:41:21;;;;;;;13.27;9.40;;;7.60;71.40;;;;;;6140311;23;20706;-87
2022/03/06 10:43:49;;;;;;;10.27;8.27;;;7.30;69.50;;;;;;6140725;23;20296;-85
2022/03/06 10:46:19;;;;;;;12.70;8.73;;;7.30;70.50;;;;;;6140427;23;20160;-87
2022/03/06 10:48:57;;;;;;;11.83;8.87;;;7.20;68.80;;;;;;6140797;23;20486;-86
2022/03/06 10:51:23;;;;;;;11.60;8.70;;;7.30;68.70;;;;;;6140469;23;20434;-86
2022/03/06 10:53:57;;;;;;;11.13;8.40;;;7.50;68.10;;;;;;6140854;23;20682;-87
2022/03/06 10:56:24;;;;;;;12.60;8.97;;;7.00;67.70;;;;;;6140148;23;20756;-86
2022/03/06 10:58:50;;;;;;;16.10;9.50;;;7.80;67.70;;;;;;6140091;23;20396;-87
2022/03/06 11:01:16;;;;;;;13.00;9.57;;;8.20;68.10;;;;;;6140907;23;20466;-86
2022/03/06 11:03:42;;;;;;;13.33;9.30;;;8.60;67.50;;;;;;6140077;23;20379;-87
2022/03/06 11:06:10;;;;;;;13.40;10.00;;;8.90;69.10;;;;;;6115977;23;20425;-86
2022/03/06 11:08:37;;;;;;;13.00;9.50;;;8.70;66.20;;;;;;6142092;23;20850;-87
2022/03/06 11:11:05;;;;;;;11.73;9.30;;;8.30;66.50;;;;;;6140339;23;20487;-87
2022/03/06 11:13:31;;;;;;;13.27;10.03;;;7.80;66.00;;;;;;6139316;23;20814;-87
2022/03/06 11:15:58;;;;;;;12.67;9.63;;;8.10;70.40;;;;;;6140335;23;20392;-87
2022/03/06 11:18:26;;;;;;;12.47;9.50;;;8.90;67.30;;;;;;6140403;23;20960;-87
2022/03/06 11:20:53;;;;;;;14.03;10.17;;;9.30;66.60;;;;;;6139478;23;20436;-87
2022/03/06 11:23:40;;;;;;;13.07;9.97;;;9.10;63.30;;;;;;6140000;23;20589;-87
2022/03/06 11:26:15;;;;;;;13.87;9.60;;;10.00;62.20;;;;;;6139250;23;20476;-87
2022/03/06 11:29:22;;;;;;;14.10;9.57;;;9.60;60.20;;;;;;6139887;23;20442;-86
2022/03/06 11:31:53;;;;;;;11.90;9.53;;;9.10;61.80;;;;;;6015011;23;20772;-87
2022/03/06 11:34:28;;;;;;;12.80;9.33;;;9.40;63.40;;;;;;5988941;23;20902;-87
2022/03/06 11:36:54;;;;;;;12.03;9.87;;;9.40;60.00;;;;;;6069692;23;20399;-87
2022/03/06 11:39:29;;;;;;;13.97;10.30;;;8.60;60.20;;;;;;6132618;23;20911;-87
2022/03/06 11:41:56;;;;;;;13.57;9.43;;;8.00;62.80;;;;;;6129867;23;20425;-87
2022/03/06 11:44:39;;;;;;;12.73;10.33;;;7.40;64.40;;;;;;6136098;23;20380;-87
2022/03/06 11:47:36;;;;;;;13.40;9.50;;;7.70;63.60;;;;;;6136248;23;20402;-88
2022/03/06 11:50:01;;;;;;;13.90;10.00;;;7.80;63.50;;;;;;6135916;23;20407;-88
2022/03/06 11:52:36;;;;;;;12.47;8.90;;;7.70;64.00;;;;;;6139398;23;20384;-87
2022/03/06 11:55:25;;;;;;;13.60;9.50;;;8.10;63.30;;;;;;6139886;23;20391;-88
2022/03/06 11:57:51;;;;;;;11.40;9.20;;;8.10;62.30;;;;;;6140002;23;20395;-88
2022/03/06 12:00:30;;;;;;;11.77;9.23;;;8.20;61.80;;;;;;6139369;23;20439;-88
2022/03/06 12:03:01;;;;;;;12.40;9.50;;;7.50;63.60;;;;;;6139166;23;20686;-88
2022/03/06 12:05:48;;;;;;;15.37;10.33;;;7.40;66.60;;;;;;6137329;23;21020;-88
2022/03/06 12:08:15;;;;;;;11.73;9.30;;;7.40;65.20;;;;;;6137579;23;20396;-88
2022/03/06 12:10:49;;;;;;;13.07;9.63;;;7.70;63.40;;;;;;6140384;23;20395;-87
2022/03/06 12:13:20;;;;;;;10.50;8.63;;;7.70;63.00;;;;;;6138781;23;20870;-87
2022/03/06 12:16:06;;;;;;;12.10;9.80;;;7.80;63.70;;;;;;6137940;23;20482;-87
2022/03/06 12:18:32;;;;;;;10.23;8.63;;;8.50;61.60;;;;;;6138509;23;20466;-87
2022/03/06 12:20:58;;;;;;;12.20;9.63;;;8.50;59.90;;;;;;6138017;23;20435;-87
2022/03/06 12:23:28;;;;;;;13.23;8.97;;;8.10;61.10;;;;;;6139274;23;20418;-86
2022/03/06 12:25:56;;;;;;;10.70;8.37;;;7.70;60.90;;;;;;6138902;23;20160;-87
2022/03/06 12:28:25;;;;;;;12.10;9.53;;;7.70;62.10;;;;;;6138820;23;20406;-87
2022/03/06 12:30:53;;;;;;;10.33;8.80;;;7.90;60.40;;;;;;6137647;23;20424;-87
2022/03/06 12:33:38;;;;;;;13.40;8.70;;;8.30;60.10;;;;;;6140302;23;20479;-88
2022/03/06 12:36:16;;;;;;;11.70;9.13;;;8.50;59.10;;;;;;6139083;23;20451;-87
2022/03/06 12:38:44;;;;;;;12.23;9.77;;;9.20;59.30;;;;;;6139873;23;20401;-88
2022/03/06 12:41:10;;;;;;;10.80;9.70;;;10.10;57.90;;;;;;6138503;23;20446;-87
2022/03/06 12:43:48;;;;;;;12.73;9.17;;;10.60;55.90;;;;;;6138327;23;20387;-87